Time;durP1;ratioP1;P1;durP2;ratioP2;P2;SDS_P1;SDS_P2;PMS_P1;PMS_P2;Temp;Humidity;BMP_temperature;BMP_pressure;BME280_temperature;BME280_humidity;BME280_pressure;Samples;Min_cycle;Max_cycle;Signal;HPM_P1;HPM_P2
2023/04/02 00:01:25;;;;;;;1.00;0.40;;;5.80;99.90;;;;;;5071839;28;20188;-68
2023/04/02 00:04:12;;;;;;;1.87;0.57;;;5.80;99.90;;;;;;5070103;28;20423;-68
2023/04/02 00:06:43;;;;;;;1.80;0.63;;;5.80;99.90;;;;;;5070626;28;20529;-68
2023/04/02 00:09:14;;;;;;;4.30;0.80;;;5.80;99.90;;;;;;5068548;28;20497;-68
2023/04/02 00:11:42;;;;;;;1.10;0.40;;;5.90;99.90;;;;;;5070364;28;20439;-68
2023/04/02 00:14:30;;;;;;;1.10;0.50;;;5.80;99.90;;;;;;5069846;28;20502;-68
2023/04/02 00:16:57;;;;;;;1.10;0.40;;;5.80;99.90;;;;;;5070374;28;20485;-68
2023/04/02 00:20:05;;;;;;;5.67;0.50;;;5.80;99.90;;;;;;5070687;28;20477;-68
2023/04/02 00:22:32;;;;;;;1.20;0.60;;;5.80;99.90;;;;;;5007830;28;20529;-68
2023/04/02 00:25:01;;;;;;;1.77;0.70;;;5.80;99.90;;;;;;5006948;28;20503;-68
2023/04/02 00:27:30;;;;;;;1.40;0.50;;;5.70;99.90;;;;;;5040375;28;20455;-69
2023/04/02 00:29:59;;;;;;;1.07;0.40;;;5.70;99.90;;;;;;5069910;28;20464;-68
2023/04/02 00:32:27;;;;;;;1.20;0.50;;;5.70;99.90;;;;;;5069874;28;21007;-68
2023/04/02 00:34:54;;;;;;;1.30;0.60;;;5.70;99.90;;;;;;5072605;28;20407;-69
2023/04/02 00:37:24;;;;;;;1.30;0.60;;;5.70;99.90;;;;;;5070782;28;20465;-68
2023/04/02 00:40:19;;;;;;;1.10;0.50;;;5.70;99.90;;;;;;5067855;28;20903;-68
2023/04/02 00:42:47;;;;;;;1.30;0.60;;;5.70;99.90;;;;;;5064951;28;20458;-68
2023/04/02 00:45:35;;;;;;;1.20;0.50;;;5.70;99.90;;;;;;5070537;28;20465;-68
2023/04/02 00:48:21;;;;;;;1.20;0.50;;;5.80;99.90;;;;;;5070071;28;20958;-68
2023/04/02 00:50:47;;;;;;;1.40;0.70;;;5.70;99.90;;;;;;5069096;28;20423;-68
2023/04/02 00:53:24;;;;;;;1.10;0.40;;;5.70;99.90;;;;;;5069671;28;20427;-68
2023/04/02 00:55:50;;;;;;;1.10;0.40;;;5.70;99.90;;;;;;5070124;28;20994;-68
2023/04/02 00:58:18;;;;;;;1.30;0.80;;;5.70;99.90;;;;;;5069844;28;20518;-69
2023/04/02 01:00:49;;;;;;;1.10;0.50;;;5.70;99.90;;;;;;5070066;28;20198;-70
2023/04/02 01:03:18;;;;;;;1.20;0.60;;;5.70;99.90;;;;;;5067295;28;20447;-68
2023/04/02 01:05:44;;;;;;;1.00;0.40;;;5.60;99.90;;;;;;5070169;28;20558;-69
2023/04/02 01:08:16;;;;;;;1.10;0.50;;;5.70;99.90;;;;;;5069620;28;20569;-69
2023/04/02 01:10:47;;;;;;;1.20;0.50;;;5.80;99.90;;;;;;5069868;28;20874;-69
2023/04/02 01:13:37;;;;;;;1.20;0.50;;;5.90;99.90;;;;;;5069141;28;20577;-69
2023/04/02 01:16:16;;;;;;;1.40;0.70;;;5.80;99.90;;;;;;5068759;28;20751;-69
2023/04/02 01:19:13;;;;;;;1.63;0.60;;;5.60;99.90;;;;;;5069516;28;20415;-69
2023/04/02 01:21:44;;;;;;;1.97;0.80;;;5.70;99.90;;;;;;5069369;28;20423;-69
2023/04/02 01:24:12;;;;;;;1.13;0.47;;;5.70;99.90;;;;;;5067350;28;20412;-69
2023/04/02 01:26:56;;;;;;;1.80;0.60;;;5.60;99.90;;;;;;5068779;28;20896;-69
2023/04/02 01:29:37;;;;;;;1.00;0.40;;;5.70;99.90;;;;;;5068822;28;20463;-69
2023/04/02 01:32:10;;;;;;;2.90;1.13;;;5.70;99.90;;;;;;5069213;28;20418;-69
2023/04/02 01:34:37;;;;;;;1.20;0.50;;;5.70;99.90;;;;;;5069019;28;20412;-69
2023/04/02 01:37:16;;;;;;;1.10;0.50;;;5.70;99.90;;;;;;5069440;28;20420;-69
2023/04/02 01:40:05;;;;;;;1.20;0.50;;;5.70;99.90;;;;;;5069147;28;20438;-69
2023/04/02 01:42:46;;;;;;;1.10;0.40;;;5.70;99.90;;;;;;5067233;28;20422;-69
2023/04/02 01:45:15;;;;;;;1.20;0.50;;;5.70;99.90;;;;;;5069144;28;20419;-69
2023/04/02 01:47:42;;;;;;;1.40;0.70;;;5.70;99.90;;;;;;5068877;28;20466;-69
2023/04/02 01:50:31;;;;;;;3.67;0.80;;;5.80;99.90;;;;;;5069372;28;20445;-69
2023/04/02 01:53:00;;;;;;;1.30;0.60;;;5.80;99.90;;;;;;5067854;28;20758;-69
2023/04/02 01:55:52;;;;;;;1.10;0.47;;;5.80;99.90;;;;;;5068356;28;20461;-69
2023/04/02 01:58:24;;;;;;;1.40;0.50;;;5.80;99.90;;;;;;5068044;28;20447;-69
2023/04/02 02:00:51;;;;;;;1.13;0.60;;;5.90;99.90;;;;;;5069758;28;20431;-69
2023/04/02 02:03:19;;;;;;;1.20;0.50;;;5.90;99.90;;;;;;5067284;28;20447;-69
2023/04/02 02:05:45;;;;;;;1.40;0.80;;;6.00;99.90;;;;;;5068680;28;20435;-69
2023/04/02 02:08:45;;;;;;;3.67;0.60;;;5.90;99.90;;;;;;5068970;28;20860;-69
2023/04/02 02:11:15;;;;;;;1.20;0.63;;;6.00;99.90;;;;;;5067678;28;20810;-69
2023/04/02 02:13:56;;;;;;;1.20;0.60;;;6.00;99.90;;;;;;5068320;28;20431;-70
2023/04/02 02:16:22;;;;;;;1.73;0.70;;;6.00;99.90;;;;;;5068929;28;20411;-69
2023/04/02 02:18:51;;;;;;;1.10;0.50;;;6.00;99.90;;;;;;5068133;28;20903;-69
2023/04/02 02:21:33;;;;;;;9.50;1.00;;;6.00;99.90;;;;;;5068939;28;20498;-69
2023/04/02 02:24:00;;;;;;;1.80;0.80;;;6.00;99.90;;;;;;5067132;28;20536;-69
2023/04/02 02:26:28;;;;;;;1.60;0.70;;;6.00;99.90;;;;;;5068087;28;20423;-69
2023/04/02 02:28:56;;;;;;;2.70;0.97;;;6.00;99.90;;;;;;5067774;28;20484;-69
2023/04/02 02:31:29;;;;;;;1.73;0.93;;;6.00;99.90;;;;;;5068592;28;20423;-70
2023/04/02 02:34:20;;;;;;;1.10;0.40;;;6.10;99.90;;;;;;5072406;28;20504;-69
2023/04/02 02:36:55;;;;;;;2.57;0.80;;;6.10;99.90;;;;;;5065457;28;20441;-69
2023/04/02 02:39:40;;;;;;;1.10;0.60;;;6.00;99.90;;;;;;5073073;28;20395;-69
2023/04/02 02:42:27;;;;;;;1.20;0.60;;;6.10;99.90;;;;;;5072921;28;20760;-69
2023/04/02 02:44:56;;;;;;;1.40;0.70;;;6.00;99.90;;;;;;5072706;28;20411;-69
2023/04/02 02:47:28;;;;;;;3.10;1.07;;;6.10;99.90;;;;;;5072603;28;20434;-69
2023/04/02 02:50:01;;;;;;;1.30;0.80;;;6.00;99.90;;;;;;5072913;28;20892;-70
2023/04/02 02:52:31;;;;;;;3.80;0.70;;;6.10;99.90;;;;;;5072829;28;20418;-69
2023/04/02 02:55:13;;;;;;;1.70;0.97;;;6.10;99.90;;;;;;5072823;28;20861;-69
2023/04/02 02:57:46;;;;;;;1.97;0.90;;;6.10;99.90;;;;;;5072920;28;20399;-69
2023/04/02 03:00:14;;;;;;;1.87;0.97;;;6.10;99.90;;;;;;5072849;28;20407;-69
2023/04/02 03:02:41;;;;;;;1.37;0.60;;;6.10;99.90;;;;;;5072467;28;20435;-69
2023/04/02 03:05:08;;;;;;;2.17;0.83;;;6.20;99.90;;;;;;5072797;28;20747;-70
2023/04/02 03:07:36;;;;;;;1.97;0.90;;;6.00;99.90;;;;;;5072790;28;20423;-70
2023/04/02 03:10:20;;;;;;;1.37;0.77;;;6.10;99.90;;;;;;5072532;28;20412;-70
2023/04/02 03:13:14;;;;;;;1.60;0.80;;;6.10;99.90;;;;;;5072713;28;20411;-70
2023/04/02 03:16:00;;;;;;;1.57;0.70;;;6.10;99.90;;;;;;5071290;28;20536;-69
2023/04/02 03:18:42;;;;;;;1.27;0.50;;;6.10;99.90;;;;;;5071945;28;20502;-70
2023/04/02 03:21:19;;;;;;;1.53;0.70;;;6.10;99.90;;;;;;5072669;28;20600;-71
2023/04/02 03:23:50;;;;;;;3.10;1.00;;;6.00;99.90;;;;;;5072575;28;20395;-69
2023/04/02 03:26:37;;;;;;;1.40;0.60;;;6.10;99.90;;;;;;5072798;28;20388;-72
2023/04/02 03:29:28;;;;;;;1.50;0.70;;;6.20;99.90;;;;;;5072266;28;20455;-69
2023/04/02 03:31:59;;;;;;;1.17;0.53;;;6.10;99.90;;;;;;5072601;28;20537;-70
2023/04/02 03:34:36;;;;;;;1.83;0.67;;;6.10;99.90;;;;;;5072535;28;20399;-70
2023/04/02 03:37:21;;;;;;;1.20;0.50;;;6.10;99.90;;;;;;5072609;28;20398;-70
2023/04/02 03:39:53;;;;;;;1.10;0.50;;;6.10;99.90;;;;;;5072534;28;20432;-69
2023/04/02 03:42:25;;;;;;;1.60;0.60;;;6.10;99.90;;;;;;5072722;28;20391;-69
2023/04/02 03:45:06;;;;;;;1.70;0.80;;;6.10;99.90;;;;;;5072480;28;20412;-70
2023/04/02 03:47:44;;;;;;;1.30;0.70;;;6.10;99.90;;;;;;5072698;28;20465;-70
2023/04/02 03:50:22;;;;;;;2.50;1.00;;;6.10;99.90;;;;;;5076096;28;20403;-70
2023/04/02 03:52:48;;;;;;;2.47;0.83;;;6.10;99.90;;;;;;5075992;28;20391;-70
2023/04/02 03:55:18;;;;;;;2.00;0.93;;;6.10;99.90;;;;;;5075711;28;20419;-70
2023/04/02 03:58:07;;;;;;;2.53;1.10;;;6.10;99.90;;;;;;5075829;28;20174;-70
2023/04/02 04:00:42;;;;;;;2.80;1.20;;;6.10;99.90;;;;;;5076047;28;20414;-70
2023/04/02 04:03:15;;;;;;;1.70;0.83;;;6.10;99.90;;;;;;5075585;28;20865;-70
2023/04/02 04:05:51;;;;;;;2.03;0.80;;;6.10;99.90;;;;;;5075767;28;20502;-70
2023/04/02 04:08:22;;;;;;;1.50;0.67;;;6.10;99.90;;;;;;5075364;28;20451;-70
2023/04/02 04:11:00;;;;;;;1.87;0.80;;;6.10;99.90;;;;;;5075915;28;20709;-70
2023/04/02 04:13:35;;;;;;;1.20;0.50;;;6.10;99.90;;;;;;5075601;28;20412;-70
2023/04/02 04:16:10;;;;;;;2.27;1.20;;;6.10;99.90;;;;;;5075527;28;20491;-68
2023/04/02 04:18:39;;;;;;;2.23;0.60;;;6.00;99.90;;;;;;5075965;28;20693;-68
2023/04/02 04:21:14;;;;;;;2.27;0.80;;;6.00;99.90;;;;;;5075255;28;20447;-68
2023/04/02 04:23:49;;;;;;;3.23;1.33;;;6.10;99.90;;;;;;5075567;28;20453;-68
2023/04/02 04:26:35;;;;;;;1.60;0.90;;;6.00;99.90;;;;;;5075546;28;20403;-69
2023/04/02 04:29:39;;;;;;;1.63;0.77;;;6.10;99.90;;;;;;5074513;28;20509;-68
2023/04/02 04:32:31;;;;;;;1.73;0.90;;;6.00;99.90;;;;;;5075306;28;20528;-69
2023/04/02 04:35:16;;;;;;;1.20;0.60;;;6.00;99.90;;;;;;5075138;28;20384;-69
2023/04/02 04:37:43;;;;;;;4.57;1.27;;;6.00;99.90;;;;;;5075060;28;20411;-69
2023/04/02 04:40:18;;;;;;;1.17;0.50;;;5.90;99.90;;;;;;5075179;28;20418;-69
2023/04/02 04:42:46;;;;;;;4.20;0.80;;;6.00;99.90;;;;;;5074794;28;20415;-69
2023/04/02 04:45:22;;;;;;;2.30;0.93;;;6.00;99.90;;;;;;5075036;28;20497;-69
2023/04/02 04:47:59;;;;;;;1.60;0.73;;;5.90;99.90;;;;;;5074974;28;20804;-69
2023/04/02 04:50:38;;;;;;;8.07;1.00;;;5.90;99.90;;;;;;5074936;28;20392;-69
2023/04/02 04:53:06;;;;;;;2.13;0.90;;;5.90;99.90;;;;;;5074828;28;20388;-69
2023/04/02 04:55:46;;;;;;;3.53;0.87;;;5.90;99.90;;;;;;5074545;28;20413;-69
2023/04/02 04:58:39;;;;;;;1.60;0.93;;;5.90;99.90;;;;;;5074622;28;20453;-69
2023/04/02 05:01:37;;;;;;;1.70;0.97;;;5.90;99.90;;;;;;5074072;28;20400;-69
2023/04/02 05:04:20;;;;;;;1.30;0.80;;;5.90;99.90;;;;;;5074605;28;20399;-69
2023/04/02 05:07:09;;;;;;;1.27;0.70;;;5.90;99.90;;;;;;5074361;28;20406;-69
2023/04/02 05:10:03;;;;;;;2.03;0.97;;;5.90;99.90;;;;;;5074106;28;20531;-69
2023/04/02 05:12:58;;;;;;;1.43;0.90;;;5.90;99.90;;;;;;5071558;28;20955;-69
2023/04/02 05:15:40;;;;;;;2.60;1.27;;;5.90;99.90;;;;;;5074450;28;20392;-69
2023/04/02 05:18:29;;;;;;;1.80;0.80;;;5.90;99.90;;;;;;5074368;28;20396;-69
2023/04/02 05:21:13;;;;;;;9.90;1.00;;;5.90;99.90;;;;;;5074299;28;20758;-68
2023/04/02 05:24:09;;;;;;;1.73;1.03;;;5.90;99.90;;;;;;5074370;28;20407;-69
2023/04/02 05:26:47;;;;;;;5.13;1.10;;;5.90;99.90;;;;;;5074005;28;20827;-69
2023/04/02 05:29:29;;;;;;;2.60;0.80;;;5.90;99.90;;;;;;5074261;28;20445;-69
2023/04/02 05:32:04;;;;;;;1.30;0.80;;;6.00;99.90;;;;;;5073997;28;20392;-69
2023/04/02 05:34:36;;;;;;;1.20;0.63;;;6.00;99.90;;;;;;5073931;28;20749;-68
2023/04/02 05:37:02;;;;;;;2.17;0.90;;;6.00;99.90;;;;;;5073888;28;20380;-68
2023/04/02 05:39:28;;;;;;;2.00;0.97;;;6.00;99.90;;;;;;5072263;28;20839;-68
2023/04/02 05:42:03;;;;;;;1.73;0.63;;;6.00;99.90;;;;;;5073767;28;20425;-68
2023/04/02 05:44:30;;;;;;;2.17;0.90;;;6.10;99.90;;;;;;5073522;28;20200;-69
2023/04/02 05:46:59;;;;;;;1.60;0.70;;;6.10;99.90;;;;;;5073936;28;20766;-69
2023/04/02 05:49:46;;;;;;;2.80;1.10;;;6.10;99.90;;;;;;5073513;28;20865;-68
2023/04/02 05:52:29;;;;;;;2.13;1.07;;;6.20;99.90;;;;;;5073269;28;20415;-68
2023/04/02 05:55:11;;;;;;;2.13;1.10;;;6.20;99.90;;;;;;5073529;28;20391;-68
2023/04/02 05:57:53;;;;;;;2.57;1.27;;;6.20;99.90;;;;;;5073396;28;20392;-68
2023/04/02 06:00:42;;;;;;;4.00;1.70;;;6.20;99.90;;;;;;5073755;28;20455;-68
2023/04/02 06:03:48;;;;;;;2.13;1.27;;;6.30;99.90;;;;;;5073094;28;20424;-68
2023/04/02 06:06:24;;;;;;;2.07;0.87;;;6.30;99.90;;;;;;5042835;28;20506;-68
2023/04/02 06:08:59;;;;;;;3.30;0.87;;;6.30;99.90;;;;;;5073390;28;20439;-68
2023/04/02 06:11:30;;;;;;;2.47;1.03;;;6.30;99.90;;;;;;5073075;28;20394;-68
2023/04/02 06:13:56;;;;;;;3.93;0.60;;;6.30;99.90;;;;;;5073390;28;20422;-68
2023/04/02 06:16:26;;;;;;;2.17;0.90;;;6.30;99.90;;;;;;5073077;28;20796;-68
2023/04/02 06:18:52;;;;;;;2.30;1.47;;;6.30;99.90;;;;;;5073340;28;20631;-68
2023/04/02 06:21:20;;;;;;;3.73;1.53;;;6.30;99.90;;;;;;5073015;28;20506;-68
2023/04/02 06:23:55;;;;;;;3.10;1.00;;;6.40;99.90;;;;;;5073680;28;20173;-68
2023/04/02 06:26:35;;;;;;;3.07;1.37;;;6.40;99.90;;;;;;5072977;28;20941;-68
2023/04/02 06:29:04;;;;;;;7.17;1.73;;;6.40;99.90;;;;;;5073105;28;20435;-68
2023/04/02 06:31:50;;;;;;;2.03;1.07;;;6.40;99.90;;;;;;5072867;28;20502;-68
2023/04/02 06:34:19;;;;;;;3.20;1.00;;;6.40;99.90;;;;;;5073092;28;20384;-68
2023/04/02 06:36:47;;;;;;;1.63;0.93;;;6.40;99.90;;;;;;5073045;28;20416;-68
2023/04/02 06:39:21;;;;;;;1.77;1.00;;;6.50;99.90;;;;;;5073044;28;20423;-68
2023/04/02 06:42:00;;;;;;;2.63;0.90;;;6.60;99.90;;;;;;5073008;28;20421;-68
2023/04/02 06:44:30;;;;;;;3.13;1.10;;;6.60;99.90;;;;;;5072835;28;20426;-68
2023/04/02 06:47:01;;;;;;;2.10;0.90;;;6.60;99.90;;;;;;5072801;28;20443;-68
2023/04/02 06:49:33;;;;;;;3.77;0.90;;;6.70;99.90;;;;;;5072620;28;20481;-68
2023/04/02 06:52:02;;;;;;;1.67;0.90;;;6.80;99.90;;;;;;5072943;28;20785;-68
2023/04/02 06:54:28;;;;;;;1.87;0.93;;;6.70;99.90;;;;;;5072715;28;20407;-68
2023/04/02 06:56:57;;;;;;;2.90;1.00;;;6.80;99.90;;;;;;5072764;28;20404;-68
2023/04/02 06:59:23;;;;;;;2.90;1.03;;;6.80;99.90;;;;;;5072681;28;20243;-69
2023/04/02 07:02:03;;;;;;;1.70;0.87;;;6.80;99.90;;;;;;5072666;28;20469;-68
2023/04/02 07:04:29;;;;;;;5.93;1.43;;;6.80;99.90;;;;;;5073036;28;20395;-68
2023/04/02 07:06:55;;;;;;;2.37;0.77;;;6.90;99.90;;;;;;5072615;28;20969;-68
2023/04/02 07:09:21;;;;;;;1.47;0.87;;;6.90;99.90;;;;;;5072398;28;20455;-69
2023/04/02 07:11:47;;;;;;;3.20;1.43;;;7.00;99.90;;;;;;5072628;28;20295;-69
2023/04/02 07:14:13;;;;;;;3.93;0.97;;;7.10;99.90;;;;;;5072705;28;20857;-69
2023/04/02 07:16:41;;;;;;;1.93;1.33;;;7.10;99.90;;;;;;5071231;28;20174;-68
2023/04/02 07:19:15;;;;;;;1.97;0.90;;;7.00;99.90;;;;;;5072350;28;20780;-68
2023/04/02 07:21:41;;;;;;;2.17;0.90;;;7.10;99.90;;;;;;5072580;28;20404;-69
2023/04/02 07:24:06;;;;;;;1.60;0.60;;;7.10;99.90;;;;;;5075221;28;20411;-68
2023/04/02 07:26:32;;;;;;;4.97;1.00;;;7.20;99.90;;;;;;5076199;28;20644;-68
2023/04/02 07:28:58;;;;;;;1.93;0.83;;;7.30;99.90;;;;;;5075735;28;20232;-68
2023/04/02 07:31:26;;;;;;;1.63;0.90;;;7.30;99.90;;;;;;5076154;28;20176;-68
2023/04/02 07:33:56;;;;;;;2.33;0.93;;;7.40;99.90;;;;;;5075546;28;20189;-68
2023/04/02 07:36:23;;;;;;;1.77;0.80;;;7.40;99.90;;;;;;5075787;28;20399;-68
2023/04/02 07:38:49;;;;;;;1.93;0.90;;;7.40;99.90;;;;;;5075865;28;20884;-69
2023/04/02 07:41:15;;;;;;;1.57;0.70;;;7.50;99.90;;;;;;5075858;28;20497;-68
2023/04/02 07:43:41;;;;;;;1.93;0.93;;;7.60;99.90;;;;;;5075754;28;20450;-68
2023/04/02 07:46:09;;;;;;;1.97;0.90;;;7.60;99.90;;;;;;5075929;28;20461;-68
2023/04/02 07:48:35;;;;;;;2.13;1.10;;;7.70;99.90;;;;;;5075655;28;20512;-68
2023/04/02 07:51:02;;;;;;;1.73;0.77;;;7.80;99.90;;;;;;5075934;28;20407;-68
2023/04/02 07:53:36;;;;;;;1.70;0.80;;;7.80;99.90;;;;;;5075877;28;20173;-68
2023/04/02 07:56:03;;;;;;;2.13;1.07;;;7.90;99.90;;;;;;5075749;28;20395;-68
2023/04/02 07:58:30;;;;;;;1.10;0.50;;;8.00;99.90;;;;;;5075886;28;20550;-68
2023/04/02 08:00:56;;;;;;;1.27;0.57;;;8.00;99.90;;;;;;5075804;28;20506;-68
2023/04/02 08:03:22;;;;;;;2.90;0.87;;;8.00;99.90;;;;;;5075648;28;20546;-68
2023/04/02 08:05:56;;;;;;;1.30;0.70;;;8.10;99.90;;;;;;5075431;28;20470;-68
2023/04/02 08:08:23;;;;;;;2.27;0.50;;;8.30;99.90;;;;;;5075533;28;20204;-68
2023/04/02 08:10:49;;;;;;;1.20;0.60;;;8.40;99.90;;;;;;5075509;28;20427;-68
2023/04/02 08:13:17;;;;;;;1.20;0.60;;;8.40;99.90;;;;;;5075290;28;20420;-68
2023/04/02 08:15:42;;;;;;;2.67;1.03;;;8.50;99.90;;;;;;5075339;28;20415;-68
2023/04/02 08:18:09;;;;;;;1.50;0.70;;;8.50;99.90;;;;;;5075482;28;20914;-68
2023/04/02 08:20:35;;;;;;;1.30;0.60;;;8.50;99.90;;;;;;5075198;28;20177;-68
2023/04/02 08:23:02;;;;;;;1.60;0.90;;;8.50;99.90;;;;;;5075148;28;20416;-68
2023/04/02 08:25:28;;;;;;;1.93;0.60;;;8.60;99.90;;;;;;5075357;28;20411;-68
2023/04/02 08:27:53;;;;;;;1.40;0.63;;;8.60;99.90;;;;;;5075371;28;20462;-68
2023/04/02 08:30:20;;;;;;;1.80;0.70;;;8.70;99.90;;;;;;5073786;28;20434;-68
2023/04/02 08:32:45;;;;;;;1.23;0.60;;;8.60;99.90;;;;;;5075093;28;20215;-71
2023/04/02 08:35:13;;;;;;;1.30;0.50;;;8.70;99.90;;;;;;5074812;28;20408;-68
2023/04/02 08:37:40;;;;;;;2.93;1.30;;;8.70;99.90;;;;;;5075116;28;20250;-68
2023/04/02 08:40:10;;;;;;;5.60;0.80;;;8.60;99.90;;;;;;5074925;28;20755;-68
2023/04/02 08:42:59;;;;;;;1.73;0.90;;;8.70;99.90;;;;;;5075050;28;20445;-68
2023/04/02 08:45:43;;;;;;;1.47;0.73;;;8.60;99.90;;;;;;5075310;28;20423;-68
2023/04/02 08:48:11;;;;;;;2.20;0.70;;;8.60;99.90;;;;;;5074697;28;20459;-68
2023/04/02 08:50:40;;;;;;;1.70;0.90;;;8.60;99.90;;;;;;5074908;28;20414;-68
2023/04/02 08:53:24;;;;;;;2.90;0.60;;;8.60;99.90;;;;;;5074835;28;20755;-68
2023/04/02 08:56:04;;;;;;;7.70;0.70;;;8.60;99.90;;;;;;5075494;28;20396;-68
2023/04/02 08:58:42;;;;;;;1.83;0.80;;;8.70;99.90;;;;;;5075619;28;20845;-68
2023/04/02 09:01:23;;;;;;;1.50;0.53;;;8.70;99.90;;;;;;5075370;28;20415;-68
2023/04/02 09:03:50;;;;;;;1.20;0.50;;;8.80;99.90;;;;;;5074847;28;20526;-68
2023/04/02 09:06:18;;;;;;;1.60;0.63;;;8.80;99.90;;;;;;5074996;28;20519;-68
2023/04/02 09:08:47;;;;;;;3.70;0.57;;;8.90;99.90;;;;;;5074802;28;20454;-68
2023/04/02 09:11:37;;;;;;;2.33;0.70;;;8.90;99.90;;;;;;5075372;28;20447;-68
2023/04/02 09:14:12;;;;;;;1.40;0.60;;;9.00;99.90;;;;;;5074851;28;20399;-68
2023/04/02 09:16:50;;;;;;;5.83;0.70;;;9.00;99.90;;;;;;5074859;28;20483;-68
2023/04/02 09:19:21;;;;;;;1.10;0.50;;;9.00;99.90;;;;;;5074952;28;20976;-68
2023/04/02 09:22:16;;;;;;;1.30;0.60;;;9.00;99.90;;;;;;5073456;28;20416;-68
2023/04/02 09:24:41;;;;;;;6.90;0.83;;;9.00;99.90;;;;;;5074903;28;20483;-68
2023/04/02 09:27:18;;;;;;;1.73;0.70;;;9.00;99.90;;;;;;5074552;28;20506;-68
2023/04/02 09:29:48;;;;;;;1.60;0.60;;;9.00;99.90;;;;;;5074719;28;20197;-68
2023/04/02 09:32:38;;;;;;;1.20;0.50;;;9.20;99.90;;;;;;5074463;28;20804;-68
2023/04/02 09:35:11;;;;;;;2.17;1.00;;;9.30;99.90;;;;;;5065638;28;20426;-68
2023/04/02 09:37:38;;;;;;;3.73;0.80;;;9.40;99.90;;;;;;5074531;28;20462;-68
2023/04/02 09:40:26;;;;;;;1.20;0.60;;;9.50;99.90;;;;;;5074315;28;20457;-68
2023/04/02 09:43:04;;;;;;;1.40;0.60;;;9.60;99.90;;;;;;5074182;28;20435;-69
2023/04/02 09:45:30;;;;;;;1.23;0.57;;;9.60;99.90;;;;;;5073826;28;20407;-68
2023/04/02 09:47:56;;;;;;;1.30;0.50;;;9.70;99.90;;;;;;5074043;28;20466;-68
2023/04/02 09:50:31;;;;;;;3.43;1.23;;;9.90;99.90;;;;;;5074727;28;20260;-68
2023/04/02 09:52:58;;;;;;;1.20;0.60;;;9.90;99.90;;;;;;5074440;28;20406;-68
2023/04/02 09:55:25;;;;;;;1.30;0.50;;;10.00;99.90;;;;;;5074203;28;20780;-68
2023/04/02 09:58:06;;;;;;;3.50;0.60;;;10.00;99.90;;;;;;5074060;28;20414;-68
2023/04/02 10:00:32;;;;;;;1.67;0.77;;;10.00;99.90;;;;;;5074013;28;20409;-68
2023/04/02 10:03:12;;;;;;;1.40;0.60;;;10.00;99.90;;;;;;5073747;28;20435;-68
2023/04/02 10:05:38;;;;;;;1.60;0.70;;;10.10;99.90;;;;;;5074179;28;20196;-68
2023/04/02 10:08:26;;;;;;;1.30;0.50;;;10.10;99.90;;;;;;5073808;28;20455;-69
2023/04/02 10:10:56;;;;;;;2.70;1.27;;;10.10;99.90;;;;;;5073914;28;20813;-68
2023/04/02 10:13:49;;;;;;;4.20;0.90;;;10.10;99.90;;;;;;5073756;28;20434;-68
2023/04/02 10:16:31;;;;;;;3.20;0.77;;;10.00;99.90;;;;;;5073792;28;20387;-69
2023/04/02 10:19:01;;;;;;;1.20;0.50;;;9.90;99.90;;;;;;5073658;28;20483;-68
2023/04/02 10:21:36;;;;;;;1.30;0.50;;;9.90;99.90;;;;;;5073653;28;20486;-68
2023/04/02 10:24:09;;;;;;;1.30;0.60;;;10.10;99.90;;;;;;5073818;28;20448;-68
2023/04/02 10:27:16;;;;;;;1.30;0.60;;;10.00;99.90;;;;;;5073878;28;20387;-68
2023/04/02 10:29:41;;;;;;;1.80;0.80;;;10.00;99.90;;;;;;5073408;28;20550;-68
2023/04/02 10:32:13;;;;;;;1.10;0.50;;;9.90;99.90;;;;;;5073522;28;20483;-68
2023/04/02 10:34:53;;;;;;;2.70;1.00;;;9.80;99.90;;;;;;5073729;28;20181;-68
2023/04/02 10:37:37;;;;;;;2.30;0.80;;;9.80;99.90;;;;;;5073724;28;20392;-68
2023/04/02 10:40:11;;;;;;;1.87;0.53;;;9.80;99.90;;;;;;5073743;28;20392;-68
2023/04/02 10:42:42;;;;;;;1.40;0.63;;;9.80;99.90;;;;;;5073383;28;20814;-69
2023/04/02 10:45:23;;;;;;;1.10;0.40;;;9.80;99.90;;;;;;5073703;28;20395;-69
2023/04/02 10:47:54;;;;;;;1.20;0.50;;;9.90;99.90;;;;;;5073783;28;20962;-69
2023/04/02 10:50:32;;;;;;;1.20;0.60;;;9.90;99.90;;;;;;5073906;28;20422;-69
2023/04/02 10:53:12;;;;;;;1.63;0.63;;;9.90;99.90;;;;;;5073869;28;20399;-69
2023/04/02 10:55:43;;;;;;;1.17;0.50;;;10.00;99.90;;;;;;5073596;28;20417;-69
2023/04/02 10:58:23;;;;;;;1.10;0.50;;;10.00;99.90;;;;;;5076995;28;20395;-69
2023/04/02 11:00:50;;;;;;;5.10;0.50;;;10.10;99.90;;;;;;5077342;28;20919;-69
2023/04/02 11:03:29;;;;;;;1.30;0.50;;;10.20;99.90;;;;;;5077232;28;20496;-69
2023/04/02 11:05:58;;;;;;;1.20;0.60;;;10.20;99.90;;;;;;5078059;28;20771;-69
2023/04/02 11:08:27;;;;;;;1.50;0.60;;;10.30;99.90;;;;;;5077009;28;20907;-69
2023/04/02 11:11:01;;;;;;;1.20;0.50;;;10.40;99.90;;;;;;5077347;28;20899;-69
2023/04/02 11:13:32;;;;;;;1.30;0.60;;;10.50;99.90;;;;;;5077244;28;20403;-69
2023/04/02 11:15:58;;;;;;;1.10;0.50;;;10.50;99.90;;;;;;5077073;28;20412;-69
2023/04/02 11:18:34;;;;;;;1.20;0.50;;;10.40;99.90;;;;;;5077088;28;20765;-69
2023/04/02 11:21:05;;;;;;;5.00;0.80;;;10.40;99.90;;;;;;5077565;28;20196;-69
2023/04/02 11:24:03;;;;;;;1.20;0.50;;;10.40;99.90;;;;;;5077112;28;20474;-69
2023/04/02 11:26:40;;;;;;;1.10;0.40;;;10.50;99.90;;;;;;5074326;28;20802;-69
2023/04/02 11:29:05;;;;;;;1.40;0.70;;;10.40;99.90;;;;;;5076975;28;20576;-69
2023/04/02 11:31:32;;;;;;;1.40;0.50;;;10.30;99.90;;;;;;5077217;28;20935;-68
2023/04/02 11:33:57;;;;;;;1.20;0.50;;;10.40;99.90;;;;;;5076791;28;20169;-69
2023/04/02 11:36:49;;;;;;;1.30;0.50;;;10.20;99.90;;;;;;5076726;28;20410;-69
2023/04/02 11:40:05;;;;;;;2.00;0.60;;;10.10;99.90;;;;;;5053338;28;20189;-69
2023/04/02 11:42:32;;;;;;;1.10;0.50;;;10.10;99.90;;;;;;5057404;28;20456;-69
2023/04/02 11:45:18;;;;;;;1.20;0.60;;;10.10;99.90;;;;;;5076875;28;20376;-69
2023/04/02 11:48:16;;;;;;;2.27;0.60;;;10.20;99.90;;;;;;5076670;28;20392;-69
2023/04/02 11:50:44;;;;;;;1.90;0.80;;;10.20;99.90;;;;;;5076349;28;20415;-69
2023/04/02 11:53:10;;;;;;;1.10;0.50;;;10.10;99.90;;;;;;5076312;28;20530;-69
2023/04/02 11:55:41;;;;;;;1.53;0.50;;;10.20;99.90;;;;;;5076570;28;20436;-70
2023/04/02 11:58:45;;;;;;;1.30;0.60;;;10.10;99.90;;;;;;5076331;28;20172;-69
2023/04/02 12:01:14;;;;;;;1.33;0.60;;;10.20;99.90;;;;;;5053186;28;20817;-70
2023/04/02 12:03:57;;;;;;;1.20;0.50;;;10.30;99.90;;;;;;5076031;28;20427;-71
2023/04/02 12:07:00;;;;;;;1.20;0.50;;;10.40;99.90;;;;;;5076128;28;20392;-71
2023/04/02 12:09:43;;;;;;;3.83;0.60;;;10.40;99.90;;;;;;5075471;28;20908;-70
2023/04/02 12:12:27;;;;;;;1.30;0.57;;;10.40;99.90;;;;;;5076229;28;20419;-70
2023/04/02 12:14:57;;;;;;;1.50;0.70;;;10.70;99.90;;;;;;5075928;28;20442;-70
2023/04/02 12:17:34;;;;;;;1.20;0.50;;;10.60;99.90;;;;;;5075914;28;20465;-70
2023/04/02 12:20:08;;;;;;;1.40;0.67;;;10.70;99.90;;;;;;5076158;28;20442;-70
2023/04/02 12:22:46;;;;;;;1.30;0.60;;;10.80;99.90;;;;;;5075824;28;20388;-71
2023/04/02 12:25:31;;;;;;;1.60;0.60;;;10.70;99.90;;;;;;5075722;28;20441;-71
2023/04/02 12:28:18;;;;;;;2.73;1.00;;;10.70;99.90;;;;;;5075865;28;20435;-71
2023/04/02 12:30:49;;;;;;;1.70;0.70;;;10.80;99.90;;;;;;5118827;22;20532;-75
2023/04/02 12:33:14;;;;;;;1.20;0.63;;;11.00;99.90;;;;;;5065110;28;20427;-76
2023/04/02 12:35:41;;;;;;;2.83;0.80;;;11.10;99.90;;;;;;5068429;28;20454;-75
2023/04/02 12:38:28;;;;;;;1.57;0.77;;;11.20;99.90;;;;;;5069404;28;20177;-75
2023/04/02 12:40:59;;;;;;;1.20;0.50;;;11.10;99.90;;;;;;5067745;28;20420;-75
2023/04/02 12:43:28;;;;;;;1.63;0.80;;;11.20;99.90;;;;;;5067959;28;20420;-75
2023/04/02 12:45:56;;;;;;;1.20;0.50;;;11.30;99.90;;;;;;5067674;28;20411;-75
2023/04/02 12:48:23;;;;;;;1.50;0.80;;;11.40;99.90;;;;;;5067493;28;20470;-75
2023/04/02 12:50:49;;;;;;;1.20;0.50;;;11.50;99.90;;;;;;5097120;28;20454;-76
2023/04/02 12:53:21;;;;;;;1.13;0.40;;;11.70;99.90;;;;;;5076820;28;20976;-76
2023/04/02 12:55:48;;;;;;;1.30;0.60;;;11.70;99.90;;;;;;5075303;28;20427;-76
2023/04/02 12:58:28;;;;;;;1.57;0.60;;;11.80;99.90;;;;;;5073069;28;20415;-77
2023/04/02 13:01:17;;;;;;;1.40;0.60;;;11.70;99.90;;;;;;5068591;28;20506;-75
2023/04/02 13:03:58;;;;;;;1.30;0.50;;;12.00;99.90;;;;;;5071263;28;20442;-75
2023/04/02 13:06:25;;;;;;;1.40;0.60;;;11.80;99.90;;;;;;5069798;28;20411;-76
2023/04/02 13:08:52;;;;;;;1.20;0.50;;;12.10;99.90;;;;;;5068384;28;20550;-77
2023/04/02 13:11:18;;;;;;;2.17;0.60;;;12.20;99.90;;;;;;5068256;28;20439;-76
2023/04/02 13:13:47;;;;;;;1.40;0.70;;;12.30;99.90;;;;;;5068241;28;20420;-77
2023/04/02 13:16:18;;;;;;;1.20;0.50;;;12.10;99.90;;;;;;5069481;28;20185;-77
2023/04/02 13:18:46;;;;;;;1.40;0.50;;;12.20;99.90;;;;;;5068337;28;20456;-76
2023/04/02 13:21:18;;;;;;;1.20;0.50;;;12.00;99.90;;;;;;5066675;28;20431;-75
2023/04/02 13:23:47;;;;;;;1.53;0.70;;;12.00;99.90;;;;;;5066401;28;20451;-76
2023/04/02 13:26:23;;;;;;;1.60;0.60;;;12.10;99.90;;;;;;5069698;28;20506;-75
2023/04/02 13:29:01;;;;;;;1.37;0.53;;;11.90;99.90;;;;;;5068443;28;21005;-74
2023/04/02 13:31:28;;;;;;;1.40;0.60;;;12.00;99.90;;;;;;5068182;28;20484;-74
2023/04/02 13:33:53;;;;;;;1.50;0.57;;;11.90;99.90;;;;;;5069701;28;20446;-76
2023/04/02 13:36:19;;;;;;;2.17;0.70;;;11.70;99.90;;;;;;5071079;28;20456;-73